Disclaimer

Please do not use the information listed here in-flight or in-navigation, as they are not provided to us by the airports but are provided by volunteers, so they might be outdated.

Search


Regions


Airport information page

Radio informations:
Tower (TWR) - 122.5 MHz
Approach (APP) - 133.15 MHz
ACC - 127.5 MHz

Airport informations:
Latitude: 41° 24' 53.07" N
Longitude: 019° 43' 14.02" E
Elevation: 126 feet - 38 meters
Operating hours: Remarks
Operating agency: Military-civil joint use airport
Timezone: UTC+1(+2DT) - Last Sunday in March to last Sunday in October
Fuel: N/A

Runway information:
18/36 - 8971 x 148 feet< - >2734 x 45 meters

Recent METARs:
LATI 180850Z VRB02KT 9999 SCT066 OVC100 11/08 Q1013 NOSIG
LATI 180920Z VRB02KT 9999 OVC068 11/08 Q1013 NOSIG
LATI 180950Z VRB02KT 9999 OVC068 12/08 Q1013 NOSIG

Airport on the map: